Kisengwa Airport


Codes: FZWR/
Name: Kisengwa Airport
City: Kisengwa
Country: Congo [DRC]
Elevation: 2428 ft.

Photos at Kisengwa Airport


   Photos courtesy of SpottingLog. You can add your own sightings and photos by signing up for a free trial today.



No photos found.

Weather at Kisengwa Airport


Time (UTC)DescriptionTempratureWindCloud coverageVisibilityPressureHumidity
21-Feb-2024 03:00Broken Clouds22°C4 mph, SE83%10000m1009hPa93%
21-Feb-2024 06:00Broken Clouds24°C4 mph, SE82%10000m1010hPa86%
21-Feb-2024 09:00Broken Clouds29°C4 mph, SE73%10000m1009hPa64%
21-Feb-2024 12:00Broken Clouds32°C7 mph, SE67%10000m1006hPa53%
21-Feb-2024 15:00Overcast Clouds29°C4 mph, SE92%10000m1005hPa75%
21-Feb-2024 18:00Overcast Clouds24°C4 mph, SE93%10000m1006hPa88%
21-Feb-2024 21:00Broken Clouds23°C2 mph, SE71%10000m1008hPa89%
22-Feb-2024 00:00Light Rain22°C2 mph, SE80%10000m1007hPa94%
22-Feb-2024 03:00Light Rain21°C2 mph, SE100%10000m1008hPa96%
22-Feb-2024 06:00Overcast Clouds24°C2 mph, N100%10000m1010hPa92%
22-Feb-2024 09:00Light Rain28°C2 mph, NW100%10000m1009hPa74%
22-Feb-2024 12:00Light Rain33°C2 mph, SW85%10000m1005hPa55%
22-Feb-2024 15:00Light Rain30°C2 mph, S56%10000m1004hPa69%
22-Feb-2024 18:00Light Rain25°C2 mph, SE77%10000m1006hPa83%
22-Feb-2024 21:00Overcast Clouds24°C2 mph, SE100%10000m1008hPa89%
23-Feb-2024 00:00Light Rain23°C2 mph, SE93%10000m1007hPa93%
23-Feb-2024 03:00Light Rain22°C0 mph, NE100%5311m1009hPa97%
23-Feb-2024 06:00Light Rain23°C2 mph, SE100%10000m1010hPa94%
23-Feb-2024 09:00Overcast Clouds30°C2 mph, S100%10000m1010hPa65%
23-Feb-2024 12:00Overcast Clouds31°C4 mph, SE100%10000m1006hPa62%
23-Feb-2024 15:00Light Rain28°C4 mph, SE97%10000m1005hPa80%
23-Feb-2024 18:00Light Rain24°C4 mph, E70%10000m1007hPa94%
23-Feb-2024 21:00Light Rain22°C4 mph, SE42%10000m1010hPa97%
24-Feb-2024 00:00Broken Clouds22°C2 mph, S71%10000m1009hPa96%
24-Feb-2024 03:00Overcast Clouds23°C2 mph, SE98%10000m1010hPa95%
24-Feb-2024 06:00Light Rain24°C2 mph, S99%10000m1012hPa92%
24-Feb-2024 09:00Light Rain27°C4 mph, SE100%10000m1012hPa77%
24-Feb-2024 12:00Light Rain29°C4 mph, SE85%10000m1009hPa68%
24-Feb-2024 15:00Moderate Rain26°C4 mph, SE99%10000m1008hPa89%
24-Feb-2024 18:00Light Rain23°C4 mph, S95%10000m1010hPa96%
24-Feb-2024 21:00Overcast Clouds22°C2 mph, S100%10000m1013hPa95%
25-Feb-2024 00:00Overcast Clouds21°C2 mph, S100%10000m1011hPa96%
25-Feb-2024 03:00Overcast Clouds20°C2 mph, S100%10000m1012hPa96%
25-Feb-2024 06:00Overcast Clouds23°C2 mph, SE99%10000m1014hPa89%
25-Feb-2024 09:00Broken Clouds29°C4 mph, SE73%10000m1013hPa60%
25-Feb-2024 12:00Broken Clouds32°C2 mph, SE53%10000m1009hPa53%
25-Feb-2024 15:00Light Rain27°C2 mph, SE95%10000m1008hPa78%
25-Feb-2024 18:00Light Rain24°C4 mph, NE97%10000m1010hPa89%
25-Feb-2024 21:00Moderate Rain22°C4 mph, NW100%4326m1013hPa97%
26-Feb-2024 00:00Moderate Rain21°C4 mph, SW100%6691m1012hPa98%